Time;durP1;ratioP1;P1;durP2;ratioP2;P2;SDS_P1;SDS_P2;PMS_P1;PMS_P2;Temp;Humidity;BMP_temperature;BMP_pressure;BME280_temperature;BME280_humidity;BME280_pressure;Samples;Min_cycle;Max_cycle;Signal;HPM_P1;HPM_P2
2021/03/03 00:00:11;;;;;;;10.07;5.87;;;;;;;1.95;87.72;100072.30;1666895;84;21305;-59
2021/03/03 00:02:39;;;;;;;13.32;5.72;;;;;;;1.93;87.92;100080.80;1656612;85;21188;-59
2021/03/03 00:05:10;;;;;;;12.43;5.90;;;;;;;1.92;87.93;100076.88;1680640;84;21249;-60
2021/03/03 00:07:39;;;;;;;7.78;5.12;;;;;;;1.91;88.00;100081.77;1671349;84;21424;-60
2021/03/03 00:10:09;;;;;;;10.10;5.83;;;;;;;1.90;88.03;100081.39;1689793;84;21171;-59
2021/03/03 00:12:39;;;;;;;9.65;5.37;;;;;;;1.87;88.21;100086.82;1675636;84;21139;-62
2021/03/03 00:15:09;;;;;;;11.80;5.57;;;;;;;1.87;88.30;100089.48;1685151;84;21152;-59
2021/03/03 00:17:37;;;;;;;8.50;4.70;;;;;;;1.85;88.38;100092.66;1683659;84;21332;-59
2021/03/03 00:20:06;;;;;;;10.78;5.53;;;;;;;1.83;88.53;100095.84;1679334;84;21540;-60
2021/03/03 00:22:34;;;;;;;12.63;5.28;;;;;;;1.81;88.66;100093.71;1683512;84;21208;-60
2021/03/03 00:25:03;;;;;;;10.48;5.75;;;;;;;1.78;88.64;100095.15;1684604;85;21182;-61
2021/03/03 00:27:31;;;;;;;10.00;5.70;;;;;;;1.76;88.79;100095.67;1680378;84;21630;-61
2021/03/03 00:30:01;;;;;;;11.33;5.60;;;;;;;1.75;88.89;100088.16;1678492;84;21175;-59
2021/03/03 00:32:29;;;;;;;9.40;5.12;;;;;;;1.75;88.93;100103.26;1684722;84;21209;-60
2021/03/03 00:34:57;;;;;;;8.83;5.33;;;;;;;1.74;89.03;100092.20;1684114;84;21635;-59
2021/03/03 00:37:24;;;;;;;9.93;5.60;;;;;;;1.72;89.07;100108.23;1677610;84;21619;-60
2021/03/03 00:39:53;;;;;;;11.93;6.10;;;;;;;1.71;89.13;100090.98;1684764;84;21190;-59
2021/03/03 00:42:21;;;;;;;7.90;5.27;;;;;;;1.71;89.23;100094.97;1682484;84;21167;-59
2021/03/03 00:44:49;;;;;;;11.33;4.90;;;;;;;1.68;89.20;100091.13;1689151;84;21133;-59
2021/03/03 00:47:17;;;;;;;9.48;5.78;;;;;;;1.66;89.27;100084.52;1681749;84;21146;-59
2021/03/03 00:49:46;;;;;;;9.70;5.50;;;;;;;1.64;89.39;100090.84;1689049;84;21260;-61
2021/03/03 00:52:14;;;;;;;13.40;5.97;;;;;;;1.62;89.45;100094.03;1684335;84;21187;-60
2021/03/03 00:54:43;;;;;;;10.50;4.63;;;;;;;1.60;89.54;100082.56;1674969;84;21194;-59
2021/03/03 00:57:13;;;;;;;9.05;5.15;;;;;;;1.59;89.62;100096.79;1684757;84;21205;-62
2021/03/03 00:59:40;;;;;;;9.98;5.90;;;;;;;1.56;89.64;100103.53;1680394;84;21167;-59
2021/03/03 01:02:09;;;;;;;10.00;5.85;;;;;;;1.54;89.69;100096.96;1727123;81;21142;-60
2021/03/03 01:04:39;;;;;;;10.27;5.80;;;;;;;1.53;89.68;100101.86;1705906;83;21171;-60
2021/03/03 01:07:07;;;;;;;9.73;5.53;;;;;;;1.53;89.71;100108.05;1728220;81;21185;-62
2021/03/03 01:09:35;;;;;;;10.03;5.40;;;;;;;1.53;89.76;100111.64;1708237;83;21163;-60
2021/03/03 01:12:03;;;;;;;10.38;5.22;;;;;;;1.52;89.81;100098.81;1716678;83;21578;-59
2021/03/03 01:14:31;;;;;;;7.63;4.80;;;;;;;1.51;89.83;100115.20;1712692;82;21139;-60
2021/03/03 01:16:59;;;;;;;10.33;5.53;;;;;;;1.50;89.87;100121.46;1724754;81;21549;-60
2021/03/03 01:19:29;;;;;;;10.80;5.37;;;;;;;1.49;89.87;100121.50;1727778;81;21288;-61
2021/03/03 01:21:57;;;;;;;9.63;5.70;;;;;;;1.47;89.95;100121.56;1727270;81;21169;-59
2021/03/03 01:24:24;;;;;;;12.97;6.63;;;;;;;1.47;89.92;100118.03;1689320;83;21190;-59
2021/03/03 01:26:52;;;;;;;9.27;5.53;;;;;;;1.46;89.99;100112.33;1720272;82;21783;-60
2021/03/03 01:29:20;;;;;;;14.43;7.17;;;;;;;1.44;89.95;100124.32;1724489;81;21179;-59
2021/03/03 01:31:47;;;;;;;14.13;6.03;;;;;;;1.43;90.12;100119.08;1724965;81;21143;-60
2021/03/03 01:34:15;;;;;;;13.70;6.70;;;;;;;1.41;90.15;100111.17;1719035;82;21147;-59
2021/03/03 01:36:43;;;;;;;13.37;6.10;;;;;;;1.40;90.19;100121.83;1727921;81;21625;-60
2021/03/03 01:39:11;;;;;;;14.27;7.07;;;;;;;1.39;90.25;100122.32;1691094;83;21142;-58
2021/03/03 01:41:38;;;;;;;10.88;6.40;;;;;;;1.39;90.27;100130.74;1715786;82;21157;-58
2021/03/03 01:44:06;;;;;;;10.80;5.63;;;;;;;1.37;90.29;100125.50;1726323;81;21171;-60
2021/03/03 01:46:33;;;;;;;9.43;5.47;;;;;;;1.37;90.38;100129.94;1713454;83;21583;-60
2021/03/03 01:49:01;;;;;;;10.80;5.83;;;;;;;1.35;90.42;100127.34;1723978;81;21507;-60
2021/03/03 01:51:30;;;;;;;11.83;5.97;;;;;;;1.33;90.47;100125.66;1728087;81;21198;-59
2021/03/03 01:53:58;;;;;;;10.27;5.73;;;;;;;1.30;90.57;100126.64;1725652;82;21206;-59
2021/03/03 01:56:26;;;;;;;10.13;6.20;;;;;;;1.29;90.62;100128.87;1718591;82;22017;-60
2021/03/03 01:58:53;;;;;;;10.20;5.22;;;;;;;1.27;90.71;100121.42;1716024;82;21495;-59
2021/03/03 02:01:21;;;;;;;10.20;5.07;;;;;;;1.25;90.68;100122.40;1719551;82;21154;-60
2021/03/03 02:03:49;;;;;;;8.57;5.23;;;;;;;1.23;90.79;100130.43;1727446;81;21632;-60
2021/03/03 02:06:29;;;;;;;11.20;5.90;;;;;;;1.22;90.87;100137.97;1726096;81;21151;-59
2021/03/03 02:09:25;;;;;;;8.97;5.70;;;;;;;1.20;90.95;100142.48;1735129;81;21177;-59
2021/03/03 02:12:06;;;;;;;9.20;5.67;;;;;;;1.18;91.06;100131.53;1724220;81;21297;-60
2021/03/03 02:14:35;;;;;;;11.43;5.53;;;;;;;1.15;91.09;100136.48;1729936;81;21190;-59
2021/03/03 02:17:03;;;;;;;9.97;6.20;;;;;;;1.14;91.19;100144.48;1723374;81;21119;-60
2021/03/03 02:19:36;;;;;;;8.97;5.37;;;;;;;1.13;91.27;100145.42;1723306;81;21613;-60
2021/03/03 02:22:15;;;;;;;10.83;5.83;;;;;;;1.11;91.28;100148.14;1721923;81;21174;-59
2021/03/03 02:24:53;;;;;;;10.83;5.17;;;;;;;1.09;91.44;100155.75;1693270;83;21210;-59
2021/03/03 02:27:21;;;;;;;10.47;6.70;;;;;;;1.07;91.43;100146.98;1683075;84;21178;-60
2021/03/03 02:29:50;;;;;;;11.67;5.43;;;;;;;1.03;91.62;100151.51;1724288;82;21150;-59
2021/03/03 02:32:18;;;;;;;8.83;6.07;;;;;;;1.03;91.66;100158.14;1722877;82;21182;-60
2021/03/03 02:34:46;;;;;;;14.97;6.60;;;;;;;1.03;91.66;100162.58;1733590;81;21181;-59
2021/03/03 02:37:14;;;;;;;10.03;5.53;;;;;;;1.02;91.71;100168.83;1731955;81;21175;-59
2021/03/03 02:39:41;;;;;;;10.90;6.00;;;;;;;1.00;91.79;100162.25;1719076;82;21150;-59
2021/03/03 02:42:09;;;;;;;10.23;5.90;;;;;;;1.00;91.84;100166.69;1724121;81;21127;-59
2021/03/03 02:44:38;;;;;;;11.67;6.30;;;;;;;0.95;91.82;100173.48;1717387;82;21570;-60
2021/03/03 02:47:06;;;;;;;12.10;5.87;;;;;;;0.95;91.87;100190.73;1718813;81;21613;-59
2021/03/03 02:49:34;;;;;;;9.43;5.27;;;;;;;0.94;91.98;100186.81;1724418;81;21170;-59
2021/03/03 02:52:03;;;;;;;11.93;6.03;;;;;;;0.93;92.02;100184.61;1651856;83;21762;-60
2021/03/03 02:54:31;;;;;;;13.13;5.97;;;;;;;0.92;92.02;100185.52;1700829;83;21171;-59
2021/03/03 02:57:00;;;;;;;9.77;5.73;;;;;;;0.92;92.13;100198.78;1725846;82;21275;-60
2021/03/03 02:59:37;;;;;;;8.50;5.10;;;;;;;0.89;92.14;100188.29;1702410;82;21190;-59
2021/03/03 03:02:09;;;;;;;11.47;5.63;;;;;;;0.89;92.22;100202.02;1706928;82;21205;-59
2021/03/03 03:04:55;;;;;;;12.23;5.77;;;;;;;0.88;92.26;100198.48;1670826;85;21273;-62
2021/03/03 03:07:45;;;;;;;10.50;5.83;;;;;;;0.87;92.30;100207.38;1680542;83;21150;-59
2021/03/03 03:10:30;;;;;;;9.40;5.10;;;;;;;0.86;92.33;100198.12;1699928;82;21596;-59
2021/03/03 03:13:17;;;;;;;9.67;4.93;;;;;;;0.85;92.27;100205.24;1699232;82;21260;-59
2021/03/03 03:16:04;;;;;;;8.60;5.37;;;;;;;0.83;92.36;100209.70;1682509;84;21173;-59
2021/03/03 03:18:42;;;;;;;12.83;5.10;;;;;;;0.83;92.37;100207.05;1683062;84;21132;-59
2021/03/03 03:21:09;;;;;;;8.67;4.57;;;;;;;0.82;92.30;100203.13;1709116;82;21183;-59
2021/03/03 03:23:39;;;;;;;11.73;6.03;;;;;;;0.81;92.33;100219.50;1636600;83;21187;-60
2021/03/03 03:26:07;;;;;;;9.93;5.43;;;;;;;0.80;92.30;100211.16;1683267;84;21155;-59
2021/03/03 03:28:38;;;;;;;9.50;5.13;;;;;;;0.79;92.34;100216.52;1707981;84;21174;-59
2021/03/03 03:31:07;;;;;;;9.53;5.03;;;;;;;0.80;92.32;100215.58;1707052;84;21214;-57
2021/03/03 03:33:35;;;;;;;9.30;5.37;;;;;;;0.78;92.28;100215.64;1679837;84;21261;-60
2021/03/03 03:36:03;;;;;;;9.37;5.43;;;;;;;0.75;92.29;100203.80;1682538;83;21176;-60
2021/03/03 03:38:31;;;;;;;10.40;5.03;;;;;;;0.75;92.31;100218.39;1687231;83;21186;-60
2021/03/03 03:41:01;;;;;;;12.37;5.43;;;;;;;0.75;92.25;100212.63;1679092;84;21179;-59
2021/03/03 03:43:29;;;;;;;7.93;5.20;;;;;;;0.74;92.24;100212.69;1680410;85;21163;-59
2021/03/03 03:45:57;;;;;;;9.93;4.70;;;;;;;0.73;92.24;100217.57;1679858;83;21313;-59
2021/03/03 03:48:24;;;;;;;8.40;4.73;;;;;;;0.71;92.21;100220.73;1686206;84;21326;-59
2021/03/03 03:50:52;;;;;;;6.90;4.57;;;;;;;0.69;92.24;100218.59;1677313;84;21208;-60
2021/03/03 03:53:20;;;;;;;9.70;4.70;;;;;;;0.69;92.32;100222.58;1676929;85;21405;-60
2021/03/03 03:55:48;;;;;;;9.93;5.50;;;;;;;0.68;92.33;100219.50;1677474;84;21249;-61
2021/03/03 03:58:16;;;;;;;9.30;5.10;;;;;;;0.67;92.33;100214.67;1687160;84;21625;-60
2021/03/03 04:00:44;;;;;;;10.87;4.70;;;;;;;0.68;92.31;100226.13;1680881;84;21671;-61
2021/03/03 04:03:12;;;;;;;13.77;5.70;;;;;;;0.67;92.35;100220.44;1728626;81;21586;-60
2021/03/03 04:05:40;;;;;;;7.53;4.57;;;;;;;0.67;92.33;100225.73;1730379;81;21182;-59
2021/03/03 04:08:08;;;;;;;10.33;5.70;;;;;;;0.66;92.29;100230.17;1731855;81;21138;-58
2021/03/03 04:10:37;;;;;;;10.10;4.90;;;;;;;0.66;92.23;100231.94;1732467;81;21191;-60
2021/03/03 04:13:05;;;;;;;10.93;5.43;;;;;;;0.66;92.25;100229.29;1692426;83;21186;-60
2021/03/03 04:15:32;;;;;;;17.23;5.57;;;;;;;0.68;92.19;100234.09;1686703;83;21238;-60
2021/03/03 04:18:00;;;;;;;9.27;5.57;;;;;;;0.67;92.13;100229.27;1732400;81;21641;-61
2021/03/03 04:20:27;;;;;;;11.23;5.87;;;;;;;0.67;92.11;100233.25;1723099;82;21298;-59
2021/03/03 04:22:55;;;;;;;9.30;5.13;;;;;;;0.67;92.05;100239.00;1719873;82;21151;-59
2021/03/03 04:25:23;;;;;;;8.50;5.50;;;;;;;0.67;91.98;100242.53;1723266;82;21168;-60
2021/03/03 04:27:50;;;;;;;9.50;5.00;;;;;;;0.65;91.97;100228.45;1715312;82;21617;-60
2021/03/03 04:30:20;;;;;;;9.03;5.57;;;;;;;0.65;91.93;100235.08;1717363;82;21167;-60
2021/03/03 04:32:56;;;;;;;9.03;4.90;;;;;;;0.62;91.90;100243.13;1723417;81;21167;-59
2021/03/03 04:35:23;;;;;;;14.13;6.00;;;;;;;0.61;91.89;100251.14;1712344;82;21601;-60
2021/03/03 04:37:51;;;;;;;12.27;5.47;;;;;;;0.59;91.89;100257.80;1727629;81;21170;-59
2021/03/03 04:40:19;;;;;;;10.10;5.60;;;;;;;0.58;91.89;100253.43;1723005;82;21131;-59
2021/03/03 04:42:48;;;;;;;12.07;5.50;;;;;;;0.61;91.88;100258.62;1726815;81;21155;-60
2021/03/03 04:45:16;;;;;;;10.77;5.73;;;;;;;0.63;91.80;100253.28;1715832;82;21226;-61
2021/03/03 04:47:44;;;;;;;10.10;5.43;;;;;;;0.62;91.73;100252.86;1718400;82;21182;-60
2021/03/03 04:50:12;;;;;;;7.47;5.30;;;;;;;0.60;91.75;100259.55;1717419;82;21343;-61
2021/03/03 04:52:40;;;;;;;12.47;6.00;;;;;;;0.59;91.76;100259.61;1716648;82;21170;-59
2021/03/03 04:55:10;;;;;;;11.50;6.00;;;;;;;0.57;91.81;100256.98;1723756;81;21151;-62
2021/03/03 04:57:38;;;;;;;14.03;6.33;;;;;;;0.56;91.84;100262.34;1732397;81;21724;-60
2021/03/03 05:00:07;;;;;;;10.83;6.13;;;;;;;0.57;91.88;100266.72;1717511;82;21364;-63
2021/03/03 05:02:35;;;;;;;10.87;5.73;;;;;;;0.56;91.91;100268.53;1725483;81;21190;-62
2021/03/03 05:05:04;;;;;;;11.13;6.20;;;;;;;0.58;91.95;100277.75;1722003;81;21321;-60
2021/03/03 05:07:32;;;;;;;12.60;6.53;;;;;;;0.57;91.94;100279.98;1719888;81;21617;-60
2021/03/03 05:10:00;;;;;;;10.83;6.20;;;;;;;0.58;91.97;100279.08;1722301;82;21205;-59
2021/03/03 05:12:28;;;;;;;11.47;6.03;;;;;;;0.59;91.97;100293.61;1722715;81;21645;-62
2021/03/03 05:14:56;;;;;;;9.97;5.87;;;;;;;0.61;91.97;100303.71;1724818;81;21187;-60
2021/03/03 05:17:24;;;;;;;10.37;5.77;;;;;;;0.64;91.92;100298.78;1720720;82;21283;-60
2021/03/03 05:19:54;;;;;;;9.80;6.13;;;;;;;0.67;91.88;100306.20;1721871;82;21324;-63
2021/03/03 05:22:21;;;;;;;10.77;6.50;;;;;;;0.69;91.82;100299.51;1705397;83;21137;-60
2021/03/03 05:24:49;;;;;;;10.93;7.03;;;;;;;0.71;91.79;100302.98;1698477;83;21236;-60
2021/03/03 05:27:17;;;;;;;11.03;6.33;;;;;;;0.76;91.77;100316.50;1714528;83;21163;-61
2021/03/03 05:29:45;;;;;;;11.93;6.67;;;;;;;0.81;91.65;100308.88;1715250;83;21325;-60
2021/03/03 05:32:12;;;;;;;11.80;6.10;;;;;;;0.85;91.58;100316.70;1711994;83;21186;-59
2021/03/03 05:34:40;;;;;;;11.90;6.73;;;;;;;0.91;91.34;100320.47;1717436;83;21135;-60
2021/03/03 05:37:09;;;;;;;11.87;6.73;;;;;;;0.94;91.17;100319.52;1715213;83;21119;-61
2021/03/03 05:39:37;;;;;;;10.97;6.27;;;;;;;0.99;91.14;100323.74;1717365;82;21143;-61
2021/03/03 05:42:06;;;;;;;10.80;6.07;;;;;;;1.02;90.84;100324.98;1717812;83;21198;-61
2021/03/03 05:44:34;;;;;;;12.27;6.50;;;;;;;1.03;90.54;100329.80;1721301;82;21175;-60
2021/03/03 05:47:02;;;;;;;12.63;6.67;;;;;;;1.01;90.30;100332.97;1705374;82;21213;-60
2021/03/03 05:49:30;;;;;;;13.93;6.50;;;;;;;1.01;90.26;100331.64;1726151;81;21333;-59
2021/03/03 05:51:58;;;;;;;15.80;6.40;;;;;;;1.02;90.22;100338.70;1717958;82;21491;-60
2021/03/03 05:54:26;;;;;;;10.77;6.13;;;;;;;1.03;90.08;100335.99;1717154;82;21179;-61
2021/03/03 05:56:55;;;;;;;10.85;6.40;;;;;;;1.04;90.03;100337.74;1716685;82;21139;-60
2021/03/03 05:59:22;;;;;;;15.57;6.43;;;;;;;1.08;89.89;100335.84;1652130;83;21171;-61
2021/03/03 06:01:51;;;;;;;11.43;6.43;;;;;;;1.11;89.80;100331.33;1703322;83;21570;-59
2021/03/03 06:04:21;;;;;;;12.95;6.22;;;;;;;1.16;89.67;100343.97;1683670;85;21884;-58
2021/03/03 06:06:48;;;;;;;9.43;5.77;;;;;;;1.20;89.42;100340.30;1683282;84;21634;-60
2021/03/03 06:09:16;;;;;;;11.17;5.70;;;;;;;1.22;89.37;100343.77;1685163;84;21229;-60
2021/03/03 06:11:44;;;;;;;14.17;6.20;;;;;;;1.26;89.24;100341.45;1685447;84;21326;-60
2021/03/03 06:14:12;;;;;;;10.20;5.13;;;;;;;1.29;88.95;100347.12;1684239;85;21203;-61
2021/03/03 06:16:41;;;;;;;9.53;5.53;;;;;;;1.31;88.78;100356.74;1676883;85;21150;-61
2021/03/03 06:19:10;;;;;;;10.63;5.87;;;;;;;1.34;88.31;100349.14;1685198;85;21143;-60
2021/03/03 06:21:38;;;;;;;11.10;5.53;;;;;;;1.37;88.22;100351.25;1683980;85;21196;-61
2021/03/03 06:24:09;;;;;;;9.27;5.47;;;;;;;1.43;88.18;100343.08;1684250;85;21200;-59
2021/03/03 06:26:57;;;;;;;13.17;6.03;;;;;;;1.52;88.07;100344.55;1688056;84;21159;-61
2021/03/03 06:29:24;;;;;;;10.93;6.40;;;;;;;1.61;87.68;100347.35;1684149;85;21163;-60
2021/03/03 06:31:53;;;;;;;12.10;5.72;;;;;;;1.65;87.01;100341.00;1684031;85;21329;-59
2021/03/03 06:34:24;;;;;;;10.63;5.08;;;;;;;1.67;86.83;100339.16;1685086;84;21334;-60
2021/03/03 06:37:03;;;;;;;9.48;5.65;;;;;;;1.70;86.49;100338.61;1683738;85;21284;-62
2021/03/03 06:39:36;;;;;;;10.67;5.90;;;;;;;1.74;86.35;100344.22;1685318;84;21736;-59
2021/03/03 06:42:08;;;;;;;10.60;4.83;;;;;;;1.79;85.80;100349.38;1685064;85;21372;-59
2021/03/03 06:44:54;;;;;;;11.38;5.28;;;;;;;1.80;85.59;100339.14;1660500;85;21187;-59
2021/03/03 06:47:23;;;;;;;9.67;5.47;;;;;;;1.82;85.55;100346.59;1685440;85;22395;-60
2021/03/03 06:49:52;;;;;;;10.73;5.63;;;;;;;1.88;85.49;100339.76;1683768;84;21179;-59
2021/03/03 06:52:40;;;;;;;11.10;5.78;;;;;;;1.94;85.19;100343.07;1688206;84;21665;-60
2021/03/03 06:55:09;;;;;;;11.55;5.40;;;;;;;2.01;84.91;100342.39;1682446;84;21206;-59
2021/03/03 06:57:36;;;;;;;11.47;5.73;;;;;;;2.07;84.75;100345.70;1679169;85;21203;-59
2021/03/03 07:00:10;;;;;;;9.63;4.83;;;;;;;2.13;84.63;100339.27;1685458;84;21601;-60
2021/03/03 07:02:38;;;;;;;12.37;5.90;;;;;;;2.21;84.18;100338.52;1710964;83;21141;-60
2021/03/03 07:05:11;;;;;;;10.48;5.45;;;;;;;2.29;83.82;100347.11;1734519;83;21400;-59
2021/03/03 07:07:40;;;;;;;11.15;5.05;;;;;;;2.35;83.45;100345.54;1735101;82;21705;-60
2021/03/03 07:10:09;;;;;;;10.05;5.28;;;;;;;2.43;83.17;100339.45;1719236;83;21146;-59
2021/03/03 07:12:48;;;;;;;11.73;5.35;;;;;;;2.50;82.65;100345.41;1726899;82;21447;-60
2021/03/03 07:15:16;;;;;;;11.18;5.17;;;;;;;2.59;82.43;100348.61;1715932;83;21640;-60
2021/03/03 07:17:44;;;;;;;8.48;4.90;;;;;;;2.70;81.63;100349.06;1719665;83;21598;-60
2021/03/03 07:20:14;;;;;;;10.00;5.83;;;;;;;2.74;81.30;100349.80;1729647;81;21308;-61
2021/03/03 07:22:50;;;;;;;11.45;5.80;;;;;;;2.79;80.89;100358.03;1714569;83;21345;-60
2021/03/03 07:25:20;;;;;;;11.80;5.45;;;;;;;2.81;80.70;100356.63;1736344;81;21434;-61
2021/03/03 07:27:49;;;;;;;9.50;5.10;;;;;;;2.85;80.19;100351.13;1719108;83;21606;-60
2021/03/03 07:30:24;;;;;;;13.28;5.22;;;;;;;2.89;79.78;100363.39;1726089;81;21557;-61
2021/03/03 07:32:52;;;;;;;8.03;5.40;;;;;;;2.92;79.37;100357.95;1728388;81;21344;-61
2021/03/03 07:35:22;;;;;;;10.25;5.95;;;;;;;3.00;79.46;100355.84;1722536;82;21169;-62
2021/03/03 07:37:55;;;;;;;11.08;5.50;;;;;;;3.11;79.31;100352.75;1707330;82;21202;-59
2021/03/03 07:40:26;;;;;;;13.65;5.22;;;;;;;3.25;79.12;100358.86;1727485;83;21158;-61
2021/03/03 07:42:57;;;;;;;10.38;5.62;;;;;;;3.41;78.68;100355.95;1719879;82;21890;-60
2021/03/03 07:45:35;;;;;;;12.68;7.08;;;;;;;3.55;78.11;100353.59;1722593;83;21186;-60
2021/03/03 07:48:06;;;;;;;13.78;5.95;;;;;;;3.61;77.03;100355.54;1702819;83;21199;-61
2021/03/03 07:50:34;;;;;;;10.08;5.87;;;;;;;3.63;76.80;100358.13;1727465;82;21328;-61
2021/03/03 07:53:02;;;;;;;11.25;5.83;;;;;;;3.65;76.10;100362.47;1719437;83;21609;-61
2021/03/03 07:55:30;;;;;;;10.60;6.00;;;;;;;3.64;75.85;100362.55;1722963;83;21617;-61
2021/03/03 07:58:00;;;;;;;12.95;5.60;;;;;;;3.68;76.14;100365.48;1723951;83;21174;-60
2021/03/03 08:00:34;;;;;;;13.58;5.53;;;;;;;3.77;75.73;100367.76;1726619;83;21112;-60
2021/03/03 08:03:05;;;;;;;10.85;5.62;;;;;;;3.82;75.56;100361.77;1732833;82;21183;-61
2021/03/03 08:05:39;;;;;;;11.12;5.53;;;;;;;3.89;75.05;100353.89;1686706;84;21248;-59
2021/03/03 08:08:24;;;;;;;10.95;5.65;;;;;;;3.91;74.81;100355.17;1684688;85;21179;-60
2021/03/03 08:11:00;;;;;;;8.55;5.97;;;;;;;3.93;74.77;100356.84;1685298;84;21159;-61
2021/03/03 08:13:34;;;;;;;8.55;4.75;;;;;;;4.00;74.52;100358.29;1679536;84;21329;-60
2021/03/03 08:16:04;;;;;;;9.65;4.87;;;;;;;4.07;74.34;100357.55;1683051;85;21332;-60
2021/03/03 08:18:52;;;;;;;12.68;5.50;;;;;;;4.12;73.93;100356.89;1683999;85;21295;-60
2021/03/03 08:21:25;;;;;;;8.83;4.95;;;;;;;4.18;73.41;100356.61;1685379;84;21139;-61
2021/03/03 08:23:57;;;;;;;7.53;4.80;;;;;;;4.20;73.17;100362.29;1684850;84;21363;-61
2021/03/03 08:26:33;;;;;;;7.83;4.85;;;;;;;4.29;73.11;100357.01;1684592;85;21179;-61
2021/03/03 08:29:23;;;;;;;7.17;4.30;;;;;;;4.38;72.14;100353.47;1684224;84;21356;-61
2021/03/03 08:31:52;;;;;;;10.60;6.20;;;;;;;4.42;71.68;100352.39;1673509;85;21639;-60
2021/03/03 08:34:20;;;;;;;13.45;5.80;;;;;;;4.43;71.56;100349.26;1676876;85;21341;-62
2021/03/03 08:36:50;;;;;;;12.85;5.97;;;;;;;4.44;71.58;100352.30;1677389;85;21321;-62
2021/03/03 08:39:24;;;;;;;9.98;6.25;;;;;;;4.49;71.86;100348.51;1677420;85;21160;-60
2021/03/03 08:41:52;;;;;;;17.07;8.20;;;;;;;4.63;71.83;100351.86;1677524;85;21500;-63
2021/03/03 08:44:21;;;;;;;30.40;7.35;;;;;;;4.77;71.70;100347.21;1677431;85;21194;-64
2021/03/03 08:46:51;;;;;;;15.53;6.50;;;;;;;4.89;71.61;100347.98;1677291;85;21480;-60
2021/03/03 08:49:25;;;;;;;15.10;6.25;;;;;;;5.05;71.09;100347.17;1663310;85;21152;-62
2021/03/03 08:52:11;;;;;;;14.35;6.12;;;;;;;5.20;70.26;100340.20;1671163;85;21199;-61
2021/03/03 08:54:45;;;;;;;9.23;5.35;;;;;;;5.33;69.76;100341.83;1677420;85;21191;-62
2021/03/03 08:57:30;;;;;;;12.90;5.40;;;;;;;5.42;69.32;100346.23;1684068;85;21285;-63
2021/03/03 08:59:58;;;;;;;11.75;5.85;;;;;;;5.49;68.48;100336.09;1682639;84;21608;-62
2021/03/03 09:02:35;;;;;;;9.98;5.47;;;;;;;5.51;68.02;100345.78;1714435;83;21177;-61
2021/03/03 09:05:09;;;;;;;10.35;5.37;;;;;;;5.53;67.97;100349.70;1737699;82;21155;-63
2021/03/03 09:07:37;;;;;;;10.58;5.72;;;;;;;5.57;67.68;100342.80;1717624;83;21154;-64
2021/03/03 09:10:19;;;;;;;12.43;5.25;;;;;;;5.65;67.81;100345.09;1720284;83;21170;-61
2021/03/03 09:12:47;;;;;;;9.73;5.20;;;;;;;5.76;67.50;100350.30;1724091;82;21174;-61
2021/03/03 09:15:16;;;;;;;13.10;6.28;;;;;;;5.87;67.23;100346.64;1722937;83;21123;-61
2021/03/03 09:17:45;;;;;;;13.18;5.97;;;;;;;6.01;67.16;100352.13;1728053;82;21163;-60
2021/03/03 09:20:17;;;;;;;9.93;5.70;;;;;;;6.15;66.62;100353.22;1723683;83;21146;-61
2021/03/03 09:22:46;;;;;;;18.17;5.35;;;;;;;6.13;64.93;100349.30;1730576;82;21321;-62
2021/03/03 09:25:20;;;;;;;10.65;5.65;;;;;;;6.05;64.11;100352.36;1724880;83;21152;-62
2021/03/03 09:27:53;;;;;;;7.95;5.40;;;;;;;5.99;64.88;100354.03;1723197;83;21206;-60
2021/03/03 09:30:27;;;;;;;9.43;5.47;;;;;;;6.09;65.04;100353.09;1724713;83;21657;-61
2021/03/03 09:32:55;;;;;;;10.00;5.97;;;;;;;6.20;64.69;100350.72;1724963;83;21288;-62
2021/03/03 09:35:29;;;;;;;13.90;5.92;;;;;;;6.28;64.79;100359.20;1725030;83;21308;-65
2021/03/03 09:37:58;;;;;;;11.73;6.03;;;;;;;6.33;64.17;100356.28;1734024;82;21715;-66
2021/03/03 09:40:32;;;;;;;41.58;7.33;;;;;;;6.33;64.01;100361.17;1730251;82;21334;-64
2021/03/03 09:43:00;;;;;;;17.67;7.67;;;;;;;6.33;63.55;100359.83;1729056;82;21286;-63
2021/03/03 09:45:28;;;;;;;35.92;8.38;;;;;;;6.33;63.73;100349.59;1687786;85;21170;-66
2021/03/03 09:47:57;;;;;;;34.80;7.37;;;;;;;6.33;63.73;100349.59;1706301;84;21174;-64
2021/03/03 09:50:30;;;;;;;44.70;8.90;;;;;;;6.51;62.71;100333.88;1692726;84;21143;-64
2021/03/03 09:52:59;;;;;;;8.03;4.35;;;;;;;6.51;62.71;100333.88;1690679;84;21288;-64
2021/03/03 09:55:35;;;;;;;10.30;4.97;;;;;;;6.52;61.73;100342.30;1694287;85;21364;-65
2021/03/03 09:58:04;;;;;;;10.05;4.90;;;;;;;6.40;62.07;100336.27;1730276;82;21142;-65
2021/03/03 10:00:40;;;;;;;10.58;5.12;;;;;;;6.40;62.07;100336.27;1741376;82;21143;-64
2021/03/03 10:03:14;;;;;;;8.10;3.75;;;;;;;6.38;61.77;100332.31;1704632;83;21170;-64
2021/03/03 10:05:43;;;;;;;8.05;4.35;;;;;;;6.47;61.68;100333.62;1685915;84;21185;-64
2021/03/03 10:08:13;;;;;;;9.98;5.10;;;;;;;6.47;61.68;100333.62;1684275;85;21175;-64
2021/03/03 10:10:47;;;;;;;11.88;5.60;;;;;;;6.49;61.68;100328.59;1685268;84;21218;-64
2021/03/03 10:13:24;;;;;;;9.55;5.10;;;;;;;6.59;62.13;100324.95;1677066;85;21127;-65
2021/03/03 10:15:55;;;;;;;10.98;5.25;;;;;;;6.69;61.83;100320.80;1677129;85;21180;-64
2021/03/03 10:18:23;;;;;;;8.70;4.83;;;;;;;6.74;61.65;100330.80;1677288;85;21120;-62
2021/03/03 10:20:56;;;;;;;8.18;4.40;;;;;;;6.72;61.33;100319.30;1677040;85;21194;-65
2021/03/03 10:23:28;;;;;;;10.15;5.15;;;;;;;6.72;61.17;100317.49;1672478;85;21172;-65
2021/03/03 10:26:05;;;;;;;8.48;4.80;;;;;;;6.73;61.02;100319.67;1676916;85;21301;-64
2021/03/03 10:28:36;;;;;;;11.18;5.70;;;;;;;6.80;60.94;100310.35;1675569;85;21155;-65
2021/03/03 10:31:07;;;;;;;10.32;5.35;;;;;;;6.89;60.96;100315.20;1677177;85;21237;-66
2021/03/03 10:33:40;;;;;;;8.95;4.87;;;;;;;6.92;60.55;100313.70;1655748;85;21184;-64
2021/03/03 10:36:22;;;;;;;8.13;4.70;;;;;;;6.95;60.23;100308.15;1679953;84;21151;-65
2021/03/03 10:38:54;;;;;;;10.78;5.40;;;;;;;6.91;60.08;100311.95;1675696;85;21325;-65
2021/03/03 10:41:24;;;;;;;7.33;4.15;;;;;;;6.86;60.20;100307.33;1684318;84;21748;-66
2021/03/03 10:43:52;;;;;;;6.37;3.37;;;;;;;6.90;59.73;100309.38;1679021;84;21217;-65
2021/03/03 10:46:23;;;;;;;7.50;3.95;;;;;;;6.83;59.07;100311.53;1676782;85;21203;-65
2021/03/03 10:48:53;;;;;;;7.78;4.15;;;;;;;6.80;59.57;100305.86;1677081;84;21187;-65
2021/03/03 10:51:36;;;;;;;7.17;4.20;;;;;;;6.87;59.60;100302.37;1676346;84;21171;-65
2021/03/03 10:54:06;;;;;;;7.55;3.80;;;;;;;6.97;59.23;100310.27;1676878;85;21615;-63
2021/03/03 10:56:40;;;;;;;7.33;3.92;;;;;;;7.01;58.83;100301.09;1676744;84;21322;-66
2021/03/03 10:59:30;;;;;;;9.83;4.35;;;;;;;7.09;58.83;100298.86;1676689;85;21155;-67
2021/03/03 11:02:01;;;;;;;6.28;3.77;;;;;;;7.17;58.74;100299.28;1676108;85;22096;-66
2021/03/03 11:04:47;;;;;;;6.47;3.83;;;;;;;7.17;57.95;100289.89;1692416;83;21190;-66
2021/03/03 11:07:16;;;;;;;6.45;3.42;;;;;;;7.17;57.76;100287.22;1684630;85;21204;-69
2021/03/03 11:09:51;;;;;;;6.17;3.67;;;;;;;7.14;58.14;100291.40;1643794;86;21605;-67
2021/03/03 11:12:24;;;;;;;7.22;3.60;;;;;;;7.14;57.69;100287.38;1670533;84;21629;-66
2021/03/03 11:14:53;;;;;;;7.55;3.70;;;;;;;7.00;57.49;100284.64;1675957;85;21316;-68
2021/03/03 11:17:21;;;;;;;6.72;3.45;;;;;;;6.97;57.98;100283.46;1697184;84;21179;-67
2021/03/03 11:19:49;;;;;;;8.50;4.15;;;;;;;6.96;58.24;100289.79;1698549;84;21311;-65
2021/03/03 11:22:17;;;;;;;6.30;3.77;;;;;;;6.79;58.94;100291.22;1696283;84;21143;-66
2021/03/03 11:24:46;;;;;;;9.53;4.72;;;;;;;6.74;59.52;100282.56;1695622;84;21169;-68
2021/03/03 11:27:14;;;;;;;6.65;3.50;;;;;;;6.91;60.04;100276.24;1699769;83;21281;-68
2021/03/03 11:29:41;;;;;;;10.28;4.72;;;;;;;7.10;59.53;100276.45;1693716;83;21343;-66
2021/03/03 11:32:12;;;;;;;11.10;4.50;;;;;;;7.25;58.94;100282.26;1698402;83;21187;-66
2021/03/03 11:34:41;;;;;;;9.45;4.00;;;;;;;7.37;58.71;100273.52;1703987;83;21257;-66
2021/03/03 11:37:10;;;;;;;7.78;4.37;;;;;;;7.50;58.61;100272.31;1695657;84;21167;-66
2021/03/03 11:39:40;;;;;;;8.15;4.22;;;;;;;7.64;57.72;100268.81;1695802;83;21151;-66
2021/03/03 11:42:12;;;;;;;8.05;4.00;;;;;;;7.70;56.92;100265.75;1702910;83;21182;-68
2021/03/03 11:44:40;;;;;;;6.30;3.90;;;;;;;7.69;56.28;100259.52;1695955;84;21196;-69